Time;durP1;ratioP1;P1;durP2;ratioP2;P2;SDS_P1;SDS_P2;PMS_P1;PMS_P2;Temp;Humidity;BMP_temperature;BMP_pressure;BME280_temperature;BME280_humidity;BME280_pressure;Samples;Min_cycle;Max_cycle;Signal;HPM_P1;HPM_P2
2022/11/10 00:00:11;;;;;;;12.95;2.83;;;10.60;99.90;;;;;;5054618;28;20051;-64
2022/11/10 00:02:36;;;;;;;13.35;2.92;;;10.60;99.90;;;;;;5053092;28;20029;-64
2022/11/10 00:05:02;;;;;;;12.60;2.80;;;10.60;99.90;;;;;;5064646;28;20025;-64
2022/11/10 00:07:28;;;;;;;8.57;2.97;;;10.60;99.90;;;;;;5058328;28;20033;-64
2022/11/10 00:09:53;;;;;;;13.48;3.53;;;10.60;99.90;;;;;;5055467;28;20112;-64
2022/11/10 00:12:20;;;;;;;11.30;3.78;;;10.60;99.90;;;;;;5053815;28;20028;-64
2022/11/10 00:17:31;;;;;;;9.88;2.80;;;10.60;99.90;;;;;;5057018;28;20036;-64
2022/11/10 00:19:56;;;;;;;10.50;2.88;;;10.60;99.90;;;;;;5056877;28;20032;-64
2022/11/10 00:22:22;;;;;;;9.52;2.95;;;10.60;99.90;;;;;;5065419;28;20637;-64
2022/11/10 00:24:47;;;;;;;12.35;3.65;;;10.60;99.90;;;;;;5057520;28;20036;-64
2022/11/10 00:27:13;;;;;;;9.88;2.67;;;10.60;99.90;;;;;;5052654;28;20126;-64
2022/11/10 00:29:40;;;;;;;10.30;3.08;;;10.60;99.90;;;;;;5049725;28;20057;-64
2022/11/10 00:32:06;;;;;;;12.73;2.90;;;10.60;99.90;;;;;;5055224;28;20481;-64
2022/11/10 00:34:32;;;;;;;13.40;2.95;;;10.50;99.90;;;;;;5063549;28;20531;-64
2022/11/10 00:36:57;;;;;;;14.10;2.95;;;10.50;99.90;;;;;;5057689;28;20021;-64
2022/11/10 00:39:23;;;;;;;12.18;2.58;;;10.50;99.90;;;;;;5058876;28;20020;-63
2022/11/10 00:41:48;;;;;;;9.00;2.75;;;10.50;99.90;;;;;;5049957;28;20029;-64
2022/11/10 00:44:14;;;;;;;13.23;2.67;;;10.50;99.90;;;;;;5056210;28;20041;-63
2022/11/10 00:46:39;;;;;;;13.55;2.70;;;10.50;99.90;;;;;;5057814;28;20521;-64
2022/11/10 00:49:05;;;;;;;11.80;3.10;;;10.50;99.90;;;;;;5052515;28;20040;-64
2022/11/10 00:51:30;;;;;;;12.40;2.40;;;10.50;99.90;;;;;;5066442;28;20048;-64
2022/11/10 00:53:56;;;;;;;10.75;2.78;;;10.50;99.90;;;;;;5051472;28;20057;-64
2022/11/10 00:56:27;;;;;;;9.88;2.95;;;10.50;99.90;;;;;;5056711;28;20029;-64
2022/11/10 00:58:52;;;;;;;9.75;2.40;;;10.50;99.90;;;;;;5062043;28;20079;-64
2022/11/10 01:01:19;;;;;;;10.05;2.30;;;10.40;99.90;;;;;;5064537;28;20437;-64
2022/11/10 01:03:45;;;;;;;12.05;2.88;;;10.40;99.90;;;;;;5063491;28;20027;-64
2022/11/10 01:06:13;;;;;;;10.38;2.53;;;10.40;99.90;;;;;;5072487;28;20028;-64
2022/11/10 01:08:40;;;;;;;13.48;2.47;;;10.40;99.90;;;;;;5050423;28;20057;-64
2022/11/10 01:11:17;;;;;;;11.30;2.47;;;10.40;99.90;;;;;;5053969;28;20032;-64
2022/11/10 01:13:44;;;;;;;6.93;2.13;;;10.40;99.90;;;;;;5053856;28;20032;-64
2022/11/10 01:16:13;;;;;;;10.45;2.67;;;10.40;99.90;;;;;;5053075;28;20022;-64
2022/11/10 01:18:38;;;;;;;11.88;2.35;;;10.40;99.90;;;;;;5051915;28;20396;-63
2022/11/10 01:21:05;;;;;;;11.70;2.50;;;10.40;99.90;;;;;;5070724;28;20541;-64
2022/11/10 01:23:31;;;;;;;9.93;2.72;;;10.40;99.90;;;;;;5058415;28;20041;-64
2022/11/10 01:26:02;;;;;;;12.15;2.70;;;10.40;99.90;;;;;;5060890;28;20020;-64
2022/11/10 01:28:29;;;;;;;13.15;2.30;;;10.40;99.90;;;;;;5059908;28;20106;-64
2022/11/10 01:31:04;;;;;;;10.70;2.65;;;10.40;99.90;;;;;;5058094;28;20031;-64
2022/11/10 01:33:30;;;;;;;9.60;2.05;;;10.40;99.90;;;;;;5055215;28;20108;-63
2022/11/10 01:35:56;;;;;;;11.43;2.30;;;10.40;99.90;;;;;;5062945;28;20025;-63
2022/11/10 01:38:22;;;;;;;12.55;2.95;;;10.40;99.90;;;;;;5061360;28;20036;-64
2022/11/10 01:40:47;;;;;;;13.15;2.90;;;10.30;99.90;;;;;;5055286;28;20036;-63
2022/11/10 01:43:14;;;;;;;12.60;2.65;;;10.30;99.90;;;;;;5057580;28;20448;-63
2022/11/10 01:45:52;;;;;;;10.27;2.72;;;10.30;99.90;;;;;;5059020;28;20028;-63
2022/11/10 01:48:34;;;;;;;15.02;3.25;;;10.30;99.90;;;;;;5060723;28;20420;-64
2022/11/10 01:51:08;;;;;;;11.80;2.42;;;10.30;99.90;;;;;;5057000;28;20017;-63
2022/11/10 01:53:37;;;;;;;9.95;3.10;;;10.30;99.90;;;;;;5055340;28;20016;-63
2022/11/10 01:56:04;;;;;;;13.32;3.58;;;10.30;99.90;;;;;;5057999;28;20025;-63
2022/11/10 01:58:38;;;;;;;14.40;3.28;;;10.30;99.90;;;;;;5060047;28;20039;-63
2022/11/10 02:01:07;;;;;;;13.45;3.45;;;10.30;99.90;;;;;;5053794;28;20096;-64
2022/11/10 02:03:49;;;;;;;12.57;2.80;;;10.20;99.90;;;;;;5057777;28;20036;-65
2022/11/10 02:06:16;;;;;;;12.13;2.50;;;10.20;99.90;;;;;;5061312;28;20133;-63
2022/11/10 02:08:43;;;;;;;13.38;2.53;;;10.20;99.90;;;;;;5080123;28;20016;-64
2022/11/10 02:11:09;;;;;;;9.45;2.35;;;10.10;99.90;;;;;;5054127;28;20686;-63
2022/11/10 02:13:35;;;;;;;15.85;2.67;;;10.10;99.90;;;;;;5059886;28;20056;-63
2022/11/10 02:16:00;;;;;;;11.07;2.67;;;10.10;99.90;;;;;;5054970;28;20049;-63
2022/11/10 02:18:26;;;;;;;12.25;2.63;;;10.10;99.90;;;;;;5062972;28;20119;-63
2022/11/10 02:20:52;;;;;;;14.38;2.63;;;10.10;99.90;;;;;;5062282;28;20024;-63
2022/11/10 02:23:29;;;;;;;12.35;2.70;;;10.10;99.90;;;;;;5055629;28;20060;-64
2022/11/10 02:25:56;;;;;;;10.82;1.88;;;10.10;99.90;;;;;;5056772;28;20033;-64
2022/11/10 02:28:22;;;;;;;10.50;3.35;;;10.10;99.90;;;;;;5066192;28;20031;-63
2022/11/10 02:30:48;;;;;;;10.07;2.15;;;10.00;99.90;;;;;;5071361;28;20024;-64
2022/11/10 02:33:16;;;;;;;15.63;2.50;;;10.10;99.90;;;;;;5068315;28;20510;-64
2022/11/10 02:35:45;;;;;;;17.13;2.65;;;10.00;99.90;;;;;;5071173;28;20020;-64
2022/11/10 02:38:11;;;;;;;11.95;3.03;;;10.00;99.90;;;;;;5071177;28;20113;-64
2022/11/10 02:40:36;;;;;;;11.68;2.75;;;10.00;99.90;;;;;;5070334;28;20056;-64
2022/11/10 02:43:07;;;;;;;15.88;2.90;;;10.00;99.90;;;;;;5070301;28;20044;-64
2022/11/10 02:45:32;;;;;;;12.55;2.90;;;10.00;99.90;;;;;;5069927;28;20028;-64
2022/11/10 02:47:58;;;;;;;13.98;2.83;;;10.00;99.90;;;;;;5067645;28;20518;-64
2022/11/10 02:50:23;;;;;;;8.73;3.28;;;10.00;99.90;;;;;;5070041;28;20457;-64
2022/11/10 02:52:49;;;;;;;10.65;3.13;;;10.00;99.90;;;;;;5070492;28;20020;-64
2022/11/10 02:55:15;;;;;;;8.80;2.50;;;10.00;99.90;;;;;;5070127;28;20016;-64
2022/11/10 02:57:40;;;;;;;16.50;2.85;;;10.00;99.90;;;;;;5070542;28;20235;-63
2022/11/10 03:00:07;;;;;;;13.00;3.03;;;10.00;99.90;;;;;;5070219;28;20078;-64
2022/11/10 03:02:33;;;;;;;11.73;2.30;;;10.00;99.90;;;;;;5085217;28;20545;-64
2022/11/10 03:04:58;;;;;;;13.02;2.75;;;10.00;99.90;;;;;;5067541;28;20021;-63
2022/11/10 03:07:24;;;;;;;9.90;2.60;;;10.00;99.90;;;;;;5052410;28;20082;-63
2022/11/10 03:09:49;;;;;;;12.07;2.55;;;10.00;99.90;;;;;;5070100;28;20050;-63
2022/11/10 03:12:16;;;;;;;11.82;2.40;;;10.00;99.90;;;;;;5069597;28;20104;-63
2022/11/10 03:14:41;;;;;;;12.50;2.88;;;10.00;99.90;;;;;;5067905;28;20024;-63
2022/11/10 03:17:07;;;;;;;12.68;3.00;;;10.00;99.90;;;;;;5069536;28;20094;-63
2022/11/10 03:19:32;;;;;;;17.33;3.05;;;10.00;99.90;;;;;;5067819;28;20021;-63
2022/11/10 03:21:58;;;;;;;11.23;2.67;;;10.00;99.90;;;;;;5066638;28;20064;-63
2022/11/10 03:24:23;;;;;;;11.93;3.05;;;10.00;99.90;;;;;;5067846;28;20028;-63
2022/11/10 03:26:49;;;;;;;13.00;3.03;;;10.10;99.90;;;;;;5068915;28;20031;-63
2022/11/10 03:29:14;;;;;;;10.70;2.67;;;10.10;99.90;;;;;;5069501;28;20024;-63
2022/11/10 03:31:40;;;;;;;15.05;2.72;;;10.10;99.90;;;;;;5069827;28;20456;-63
2022/11/10 03:34:05;;;;;;;9.63;1.92;;;10.10;99.90;;;;;;5065324;28;20131;-63
2022/11/10 03:36:31;;;;;;;10.50;2.55;;;10.10;99.90;;;;;;5067746;28;20099;-64
2022/11/10 03:38:56;;;;;;;16.40;2.90;;;10.10;99.90;;;;;;5063874;28;20501;-63
2022/11/10 03:41:22;;;;;;;13.27;2.47;;;10.10;99.90;;;;;;5069113;28;20024;-63
2022/11/10 03:43:48;;;;;;;14.23;2.80;;;10.00;99.90;;;;;;5065993;28;20060;-63
2022/11/10 03:46:17;;;;;;;13.30;2.80;;;10.00;99.90;;;;;;5052637;28;20041;-63
2022/11/10 03:48:43;;;;;;;10.40;2.00;;;10.00;99.90;;;;;;5067229;28;20032;-64
2022/11/10 03:51:08;;;;;;;12.75;3.30;;;10.00;99.90;;;;;;5069501;28;20024;-63
2022/11/10 03:53:34;;;;;;;14.73;2.42;;;10.00;99.90;;;;;;5067578;28;20031;-63
2022/11/10 03:56:01;;;;;;;14.27;4.43;;;9.90;99.90;;;;;;5069352;28;20452;-63
2022/11/10 03:58:27;;;;;;;12.90;2.90;;;9.90;99.90;;;;;;5069089;28;20040;-63
2022/11/10 04:00:53;;;;;;;10.77;2.65;;;10.00;99.90;;;;;;5069258;28;20039;-63
2022/11/10 04:03:20;;;;;;;15.20;3.05;;;10.00;99.90;;;;;;5069371;28;20058;-63
2022/11/10 04:17:03;;;;;;;13.93;2.15;;;9.90;99.90;;;;;;5043361;28;20036;-63
2022/11/10 04:19:29;;;;;;;11.50;2.35;;;9.90;99.90;;;;;;5068723;28;20029;-63
2022/11/10 04:21:55;;;;;;;14.05;2.85;;;9.90;99.90;;;;;;5068833;28;20443;-63
2022/11/10 04:24:20;;;;;;;12.57;2.33;;;9.90;99.90;;;;;;5067285;28;20035;-63
2022/11/10 04:26:47;;;;;;;12.77;2.20;;;9.90;99.90;;;;;;5067059;28;20024;-63
2022/11/10 04:29:15;;;;;;;9.40;2.90;;;9.90;99.90;;;;;;5054125;28;20123;-63
2022/11/10 04:31:42;;;;;;;10.98;2.38;;;10.00;99.90;;;;;;5066088;28;20027;-63
2022/11/10 04:34:10;;;;;;;12.27;2.17;;;10.00;99.90;;;;;;5068582;28;20169;-63
2022/11/10 04:36:37;;;;;;;10.25;2.92;;;10.00;99.90;;;;;;5068419;28;20020;-63
2022/11/10 04:39:04;;;;;;;13.32;2.58;;;9.90;99.90;;;;;;5065690;28;20020;-63
2022/11/10 04:41:30;;;;;;;14.45;3.17;;;9.90;99.90;;;;;;5065977;28;20040;-63
2022/11/10 04:43:57;;;;;;;20.23;3.28;;;9.90;99.90;;;;;;5068412;28;20048;-63
2022/11/10 04:46:24;;;;;;;13.45;2.45;;;9.90;99.90;;;;;;5068155;28;20021;-63
2022/11/10 04:48:50;;;;;;;12.40;2.90;;;9.90;99.90;;;;;;5067246;28;20025;-63
2022/11/10 04:51:18;;;;;;;10.93;2.30;;;9.90;99.90;;;;;;5068128;28;20021;-63
2022/11/10 04:53:43;;;;;;;10.63;1.92;;;9.90;99.90;;;;;;5065619;28;20024;-63
2022/11/10 04:56:17;;;;;;;11.80;2.38;;;9.90;99.90;;;;;;5069737;28;20028;-63
2022/11/10 04:58:43;;;;;;;8.35;2.10;;;9.90;99.90;;;;;;5072684;28;20021;-63
2022/11/10 05:01:11;;;;;;;14.13;2.33;;;9.90;99.90;;;;;;5070921;28;20021;-64
2022/11/10 05:03:37;;;;;;;10.77;2.22;;;9.90;99.90;;;;;;5072461;28;20112;-63
2022/11/10 05:06:03;;;;;;;15.55;3.40;;;9.90;99.90;;;;;;5072247;28;20099;-63
2022/11/10 05:08:28;;;;;;;14.88;2.38;;;9.90;99.90;;;;;;5072129;28;20020;-63
2022/11/10 05:10:54;;;;;;;18.70;2.75;;;9.90;99.90;;;;;;5072404;28;20127;-63
2022/11/10 05:13:19;;;;;;;12.75;3.05;;;9.80;99.90;;;;;;5072453;28;20117;-63
2022/11/10 05:15:45;;;;;;;12.95;2.40;;;9.80;99.90;;;;;;5072486;28;20028;-63
2022/11/10 05:18:11;;;;;;;15.45;3.10;;;9.80;99.90;;;;;;5072239;28;20533;-63
2022/11/10 05:20:36;;;;;;;12.63;2.10;;;9.80;99.90;;;;;;5069017;28;20424;-63
2022/11/10 05:25:46;;;;;;;12.23;2.38;;;9.70;99.90;;;;;;5072204;28;20035;-63
2022/11/10 05:28:12;;;;;;;10.05;2.40;;;9.70;99.90;;;;;;5068722;28;20024;-63
2022/11/10 05:30:38;;;;;;;13.75;2.70;;;9.70;99.90;;;;;;5072247;28;20438;-63
2022/11/10 05:33:04;;;;;;;15.07;2.40;;;9.70;99.90;;;;;;5071627;28;20024;-63
2022/11/10 05:35:30;;;;;;;13.05;2.40;;;9.70;99.90;;;;;;5072217;28;20028;-63
2022/11/10 05:37:56;;;;;;;16.63;2.72;;;9.70;99.90;;;;;;5070222;28;20020;-63
2022/11/10 05:40:21;;;;;;;10.15;1.98;;;9.70;99.90;;;;;;5070743;28;20056;-63
2022/11/10 05:42:52;;;;;;;14.98;2.75;;;9.70;99.90;;;;;;5071852;28;20025;-63
2022/11/10 05:45:19;;;;;;;13.90;2.75;;;9.70;99.90;;;;;;5070194;28;20501;-63
2022/11/10 05:47:45;;;;;;;11.70;2.20;;;9.60;99.90;;;;;;5071761;28;20016;-63
2022/11/10 05:50:11;;;;;;;14.43;3.60;;;9.70;99.90;;;;;;5071976;28;20494;-63
2022/11/10 05:52:44;;;;;;;12.25;2.28;;;9.60;99.90;;;;;;5071468;28;20031;-63
2022/11/10 05:55:11;;;;;;;14.68;2.63;;;9.60;99.90;;;;;;5068874;28;20017;-63
2022/11/10 05:57:36;;;;;;;18.20;2.58;;;9.60;99.90;;;;;;5071395;28;20025;-63
2022/11/10 06:00:07;;;;;;;13.85;2.50;;;9.60;99.90;;;;;;5071667;28;20031;-63
2022/11/10 06:02:32;;;;;;;14.27;2.78;;;9.60;99.90;;;;;;5071533;28;20021;-63
2022/11/10 06:04:58;;;;;;;16.45;2.55;;;9.60;99.90;;;;;;5070135;28;20024;-63
2022/11/10 06:07:23;;;;;;;11.38;2.25;;;9.60;99.90;;;;;;5069641;28;20153;-63
2022/11/10 06:09:49;;;;;;;13.05;2.47;;;9.50;99.90;;;;;;5073300;28;20536;-63
2022/11/10 06:12:14;;;;;;;16.90;2.40;;;9.50;99.90;;;;;;5072850;28;20504;-63
2022/11/10 06:14:40;;;;;;;12.02;2.78;;;9.50;99.90;;;;;;5074667;28;20055;-63
2022/11/10 06:17:06;;;;;;;12.38;3.15;;;9.50;99.90;;;;;;5074809;28;20025;-63
2022/11/10 06:19:39;;;;;;;12.43;3.38;;;9.50;99.90;;;;;;5069694;28;20028;-63
2022/11/10 06:22:05;;;;;;;14.50;2.00;;;9.50;99.90;;;;;;5073324;28;20025;-63
2022/11/10 06:24:30;;;;;;;15.88;2.35;;;9.40;99.90;;;;;;5074854;28;20020;-63
2022/11/10 06:26:56;;;;;;;16.50;2.90;;;9.40;99.90;;;;;;5074527;28;20456;-63
2022/11/10 06:29:21;;;;;;;13.85;2.80;;;9.40;99.90;;;;;;5074343;28;20024;-63
2022/11/10 06:31:47;;;;;;;13.43;2.17;;;9.40;99.90;;;;;;5074794;28;20024;-63
2022/11/10 06:34:12;;;;;;;13.48;2.53;;;9.50;99.90;;;;;;5074605;28;20107;-63
2022/11/10 06:36:39;;;;;;;14.15;3.08;;;9.40;99.90;;;;;;5074333;28;20029;-63
2022/11/10 06:39:05;;;;;;;15.73;2.45;;;9.40;99.90;;;;;;5073658;28;20070;-63
2022/11/10 06:41:30;;;;;;;12.43;3.25;;;9.40;99.90;;;;;;5071154;28;20033;-63
2022/11/10 06:43:56;;;;;;;14.38;2.33;;;9.40;99.90;;;;;;5073773;28;20051;-63
2022/11/10 06:46:21;;;;;;;10.77;2.58;;;9.40;99.90;;;;;;5064692;28;20040;-63
2022/11/10 06:48:47;;;;;;;9.93;1.73;;;9.40;99.90;;;;;;5073996;28;20480;-63
2022/11/10 06:51:12;;;;;;;16.83;2.53;;;9.40;99.90;;;;;;5073916;28;20029;-62
2022/11/10 06:53:38;;;;;;;19.38;3.25;;;9.40;99.90;;;;;;5074221;28;20056;-63
2022/11/10 06:56:03;;;;;;;15.98;2.33;;;9.50;99.90;;;;;;5074018;28;20024;-63
2022/11/10 06:58:34;;;;;;;18.23;2.55;;;9.50;99.90;;;;;;5073404;28;20090;-63
2022/11/10 07:01:00;;;;;;;9.95;2.30;;;9.50;99.90;;;;;;5065799;28;20034;-63
2022/11/10 07:03:27;;;;;;;19.85;4.07;;;9.50;99.90;;;;;;5054910;28;20024;-63
2022/11/10 07:05:53;;;;;;;16.33;2.80;;;9.60;99.90;;;;;;5054186;28;20025;-63
2022/11/10 07:08:19;;;;;;;11.77;2.58;;;9.60;99.90;;;;;;5059599;28;20077;-63
2022/11/10 07:10:51;;;;;;;14.90;2.50;;;9.60;99.90;;;;;;5056275;28;20385;-63
2022/11/10 07:13:17;;;;;;;18.48;2.78;;;9.70;99.90;;;;;;5053323;28;20549;-63
2022/11/10 07:15:42;;;;;;;10.65;2.38;;;9.70;99.90;;;;;;5062504;28;20064;-63
2022/11/10 07:18:08;;;;;;;11.45;2.10;;;9.60;99.90;;;;;;5071346;28;20029;-63
2022/11/10 07:20:34;;;;;;;13.85;2.90;;;9.60;99.90;;;;;;5066743;28;20400;-63
2022/11/10 07:23:02;;;;;;;12.50;2.83;;;9.70;99.90;;;;;;5063068;28;20049;-63
2022/11/10 07:25:29;;;;;;;10.60;2.85;;;9.60;99.90;;;;;;5069000;28;20408;-63
2022/11/10 07:28:00;;;;;;;12.63;2.28;;;9.60;99.90;;;;;;5058403;28;20060;-63
2022/11/10 07:30:27;;;;;;;17.77;3.28;;;9.60;99.90;;;;;;5070687;28;20133;-63
2022/11/10 07:33:09;;;;;;;19.48;2.92;;;9.60;99.90;;;;;;5061930;28;20111;-63
2022/11/10 07:35:35;;;;;;;16.52;3.65;;;9.60;99.90;;;;;;5053365;28;20022;-63
2022/11/10 07:38:03;;;;;;;15.82;2.42;;;9.60;99.90;;;;;;5055151;28;20028;-63
2022/11/10 07:40:29;;;;;;;9.57;2.20;;;9.60;99.90;;;;;;5064566;28;20012;-63
2022/11/10 07:42:55;;;;;;;15.65;2.75;;;9.70;99.90;;;;;;5070436;28;20045;-62
2022/11/10 07:45:21;;;;;;;13.50;2.47;;;9.70;99.90;;;;;;5062432;28;20039;-63
2022/11/10 07:47:46;;;;;;;13.00;2.70;;;9.70;99.90;;;;;;5060452;28;20031;-63
2022/11/10 07:50:11;;;;;;;11.00;2.33;;;9.70;99.90;;;;;;5056509;28;20029;-63
2022/11/10 07:52:37;;;;;;;16.33;2.90;;;9.80;99.90;;;;;;5062906;28;20484;-63
2022/11/10 07:55:04;;;;;;;12.77;2.80;;;9.90;99.90;;;;;;5057324;28;20021;-63
2022/11/10 07:57:31;;;;;;;18.27;2.80;;;9.90;99.90;;;;;;5058757;28;20381;-64
2022/11/10 07:59:57;;;;;;;18.10;3.15;;;10.00;99.90;;;;;;5060271;28;20430;-63
2022/11/10 08:02:22;;;;;;;11.50;2.58;;;10.10;99.90;;;;;;5061169;28;20025;-63
2022/11/10 08:04:47;;;;;;;19.88;3.03;;;10.10;99.90;;;;;;5062402;28;20133;-63
2022/11/10 08:07:13;;;;;;;22.08;3.67;;;10.10;99.90;;;;;;5062728;28;20033;-63
2022/11/10 08:09:38;;;;;;;14.50;3.70;;;10.10;99.90;;;;;;5056447;28;20056;-63
2022/11/10 08:12:04;;;;;;;10.98;2.67;;;10.20;99.90;;;;;;5058613;28;20024;-64
2022/11/10 08:14:30;;;;;;;15.48;2.38;;;10.20;99.90;;;;;;5058845;28;20052;-64
2022/11/10 08:16:56;;;;;;;15.30;2.35;;;10.30;99.90;;;;;;5058278;28;20043;-64
2022/11/10 08:19:22;;;;;;;18.55;3.05;;;10.30;99.90;;;;;;5051534;28;20503;-64
2022/11/10 08:21:47;;;;;;;11.90;2.80;;;10.30;99.90;;;;;;5074207;28;20052;-64
2022/11/10 08:24:20;;;;;;;14.75;2.58;;;10.40;99.90;;;;;;5073799;28;20021;-64
2022/11/10 08:26:46;;;;;;;11.27;2.72;;;10.40;99.90;;;;;;5073099;28;20025;-63
2022/11/10 08:29:11;;;;;;;14.85;2.90;;;10.50;99.90;;;;;;5083795;28;20034;-63
2022/11/10 08:31:37;;;;;;;16.05;2.75;;;10.50;99.90;;;;;;5082340;28;20392;-63
2022/11/10 08:34:03;;;;;;;14.57;2.97;;;10.50;99.90;;;;;;5080700;28;20020;-64
2022/11/10 08:36:29;;;;;;;10.88;2.47;;;10.50;99.90;;;;;;5079940;28;20020;-63
2022/11/10 08:38:54;;;;;;;14.85;2.53;;;10.60;99.90;;;;;;5087282;28;20073;-64
2022/11/10 08:41:20;;;;;;;11.43;2.92;;;10.60;99.90;;;;;;5072374;28;20476;-64
2022/11/10 08:43:46;;;;;;;11.52;2.67;;;10.70;99.90;;;;;;5083536;28;20064;-63
2022/11/10 08:46:12;;;;;;;16.58;3.05;;;10.70;99.90;;;;;;5063976;28;20100;-63
2022/11/10 08:48:37;;;;;;;16.13;3.00;;;10.80;99.90;;;;;;5062383;28;20494;-64
2022/11/10 08:51:03;;;;;;;13.00;2.97;;;10.80;99.90;;;;;;5072001;28;20029;-63
2022/11/10 08:53:28;;;;;;;13.73;2.65;;;10.90;99.90;;;;;;5062260;28;20111;-64
2022/11/10 08:55:58;;;;;;;13.23;2.60;;;11.00;99.90;;;;;;5072347;28;20036;-64
2022/11/10 08:58:24;;;;;;;11.95;2.55;;;11.10;99.90;;;;;;5066539;28;20024;-64
2022/11/10 09:00:50;;;;;;;14.40;2.20;;;11.20;99.90;;;;;;5058429;28;20037;-64
2022/11/10 09:03:18;;;;;;;10.77;2.40;;;11.20;99.90;;;;;;5062487;28;20495;-63
2022/11/10 09:05:44;;;;;;;18.05;3.40;;;11.30;99.90;;;;;;5062260;28;20016;-64
2022/11/10 09:08:10;;;;;;;14.18;2.95;;;11.50;99.90;;;;;;5062070;28;20476;-64
2022/11/10 09:10:46;;;;;;;20.85;3.85;;;11.50;99.90;;;;;;5070340;28;20030;-64
2022/11/10 09:13:13;;;;;;;13.80;3.33;;;11.60;99.90;;;;;;5071971;28;20025;-64
2022/11/10 09:15:40;;;;;;;11.85;2.90;;;11.60;99.90;;;;;;5063690;28;20096;-64
2022/11/10 09:18:07;;;;;;;14.50;3.10;;;11.70;99.90;;;;;;5051786;28;20068;-64
2022/11/10 09:20:35;;;;;;;15.40;2.95;;;11.70;99.90;;;;;;5057143;28;20055;-64
2022/11/10 09:23:12;;;;;;;11.05;2.40;;;11.80;99.90;;;;;;5061701;28;20043;-64
2022/11/10 09:25:41;;;;;;;11.30;2.30;;;11.90;99.90;;;;;;5057371;28;20496;-64
2022/11/10 09:28:12;;;;;;;14.82;2.17;;;12.00;99.90;;;;;;5055317;28;20111;-64
2022/11/10 09:30:37;;;;;;;14.88;3.55;;;12.10;99.90;;;;;;5061920;28;20104;-64
2022/11/10 09:33:03;;;;;;;12.90;2.88;;;12.20;99.90;;;;;;5070007;28;20112;-64
2022/11/10 09:35:28;;;;;;;14.02;3.28;;;12.30;99.90;;;;;;5066772;28;20027;-64
2022/11/10 09:37:54;;;;;;;11.38;3.30;;;12.40;99.90;;;;;;5071718;28;20540;-64
2022/11/10 09:40:57;;;;;;;8.45;2.42;;;12.50;99.90;;;;;;5070399;28;20025;-64
2022/11/10 09:43:32;;;;;;;10.90;2.75;;;12.60;99.90;;;;;;5071525;28;20044;-64
2022/11/10 09:46:02;;;;;;;12.52;4.22;;;12.80;99.90;;;;;;5056515;28;20501;-63
2022/11/10 09:48:31;;;;;;;16.52;3.10;;;12.90;99.90;;;;;;5074329;28;20028;-64
2022/11/10 09:51:24;;;;;;;12.95;2.20;;;13.10;99.90;;;;;;5061790;28;20027;-64
2022/11/10 09:54:00;;;;;;;8.80;2.40;;;13.40;99.90;;;;;;5064877;28;20056;-64
2022/11/10 09:56:34;;;;;;;12.57;3.22;;;14.00;99.90;;;;;;5057125;28;20027;-64
2022/11/10 09:59:02;;;;;;;11.82;2.42;;;14.50;99.90;;;;;;5058511;28;20025;-64
2022/11/10 10:01:54;;;;;;;14.68;2.42;;;15.00;99.90;;;;;;5060558;28;20035;-64
2022/11/10 10:04:28;;;;;;;10.88;2.53;;;15.30;99.90;;;;;;5058899;28;20028;-64
2022/11/10 10:07:19;;;;;;;11.82;1.98;;;15.90;99.20;;;;;;5061286;28;20040;-64
2022/11/10 10:10:07;;;;;;;13.05;3.17;;;16.50;97.90;;;;;;5060875;28;20021;-64
2022/11/10 10:13:03;;;;;;;13.95;2.75;;;16.70;96.10;;;;;;5055012;28;20029;-64
2022/11/10 10:15:59;;;;;;;11.40;3.08;;;16.80;95.70;;;;;;5071506;28;20066;-64
2022/11/10 10:18:34;;;;;;;7.43;1.85;;;17.20;95.00;;;;;;5061887;28;20032;-64
2022/11/10 10:21:19;;;;;;;9.95;2.17;;;17.70;94.20;;;;;;5061261;28;20428;-64
2022/11/10 10:23:50;;;;;;;14.50;3.38;;;18.10;93.00;;;;;;5068214;28;20063;-64
2022/11/10 10:26:21;;;;;;;8.07;1.60;;;18.50;91.80;;;;;;5054312;28;20032;-64
2022/11/10 10:28:48;;;;;;;11.60;3.08;;;19.10;91.60;;;;;;5065590;28;20025;-64
2022/11/10 10:31:23;;;;;;;9.13;2.20;;;19.50;88.00;;;;;;5056852;28;20465;-64
2022/11/10 10:33:49;;;;;;;11.75;2.70;;;19.60;85.90;;;;;;5066129;28;20031;-64
2022/11/10 10:36:26;;;;;;;8.23;2.15;;;19.90;83.90;;;;;;5060703;28;20027;-64
2022/11/10 10:38:56;;;;;;;12.73;2.50;;;20.60;82.20;;;;;;5059353;28;20021;-64
2022/11/10 10:41:23;;;;;;;10.35;2.67;;;20.90;79.40;;;;;;5065414;28;20032;-64
2022/11/10 10:43:52;;;;;;;9.85;2.38;;;21.50;78.60;;;;;;5056978;28;20049;-64
2022/11/10 10:46:19;;;;;;;6.50;2.00;;;22.40;75.60;;;;;;5054954;28;20051;-64
2022/11/10 10:48:44;;;;;;;8.48;2.22;;;23.00;71.70;;;;;;5057831;28;20475;-65
2022/11/10 10:51:27;;;;;;;9.95;2.33;;;23.30;70.20;;;;;;5069885;28;20549;-64
2022/11/10 10:53:52;;;;;;;5.18;1.70;;;23.20;68.80;;;;;;5074089;28;20017;-65
2022/11/10 10:56:23;;;;;;;7.70;1.90;;;22.90;69.20;;;;;;5073850;28;20100;-64
2022/11/10 10:58:57;;;;;;;11.70;2.42;;;22.90;68.70;;;;;;5068710;28;20028;-64
2022/11/10 11:01:30;;;;;;;7.63;2.60;;;23.20;66.80;;;;;;5061003;28;20025;-64
2022/11/10 11:03:57;;;;;;;9.57;2.33;;;23.50;65.40;;;;;;5059956;28;20111;-64
2022/11/10 11:06:26;;;;;;;7.70;1.73;;;23.80;65.30;;;;;;5072458;28;20056;-65
2022/11/10 11:09:05;;;;;;;10.13;2.55;;;24.10;62.30;;;;;;5069934;28;20028;-65
2022/11/10 11:11:37;;;;;;;6.45;2.78;;;24.80;61.70;;;;;;5071812;28;20463;-65
2022/11/10 11:14:20;;;;;;;9.02;2.13;;;25.70;60.00;;;;;;5070513;28;20036;-65
2022/11/10 11:16:55;;;;;;;8.43;2.33;;;26.50;59.00;;;;;;5072466;28;20384;-65
2022/11/10 11:19:33;;;;;;;6.85;1.95;;;27.40;56.50;;;;;;5072338;28;20387;-65
2022/11/10 11:22:17;;;;;;;7.55;2.13;;;28.00;53.50;;;;;;5073308;28;20036;-65
2022/11/10 11:24:59;;;;;;;9.43;2.08;;;28.10;53.20;;;;;;5073269;28;20429;-65
2022/11/10 11:27:28;;;;;;;5.45;2.00;;;28.50;51.70;;;;;;5061115;28;20025;-65
2022/11/10 11:30:08;;;;;;;9.57;2.30;;;28.90;50.90;;;;;;5055497;28;20104;-65
2022/11/10 11:33:00;;;;;;;5.78;1.80;;;29.20;49.70;;;;;;5066132;28;20033;-65
2022/11/10 11:35:50;;;;;;;5.35;2.15;;;29.20;49.90;;;;;;5066040;28;20028;-65
2022/11/10 11:38:30;;;;;;;7.22;2.45;;;29.20;48.00;;;;;;5073482;28;20435;-65
2022/11/10 11:41:14;;;;;;;8.27;2.00;;;28.80;47.70;;;;;;5073121;28;20020;-65
2022/11/10 11:44:08;;;;;;;10.57;2.70;;;27.90;48.50;;;;;;5066283;28;20052;-65
2022/11/10 11:47:27;;;;;;;5.90;1.77;;;27.40;49.40;;;;;;5057625;28;20028;-65
2022/11/10 11:50:28;;;;;;;4.45;1.50;;;26.90;50.00;;;;;;4991559;28;20065;-65
2022/11/10 11:52:59;;;;;;;6.93;1.38;;;26.90;51.00;;;;;;5070071;28;20048;-65
2022/11/10 11:55:54;;;;;;;6.10;2.25;;;27.50;50.30;;;;;;5072979;28;20463;-65
2022/11/10 11:58:28;;;;;;;8.55;1.83;;;28.00;49.20;;;;;;5061754;28;20020;-65
2022/11/10 12:01:11;;;;;;;6.18;1.60;;;28.50;48.60;;;;;;5072852;28;20091;-65
2022/11/10 12:03:58;;;;;;;7.20;2.00;;;29.10;48.20;;;;;;5072677;28;20111;-65
2022/11/10 12:06:33;;;;;;;6.13;1.73;;;30.10;47.90;;;;;;5060091;28;20060;-65
2022/11/10 12:09:23;;;;;;;6.85;1.80;;;30.50;45.80;;;;;;5072654;28;20028;-65
2022/11/10 12:12:07;;;;;;;6.68;1.85;;;30.20;45.30;;;;;;5072488;28;20094;-65
2022/11/10 12:14:48;;;;;;;5.45;1.55;;;30.00;46.00;;;;;;5078554;28;20028;-65
2022/11/10 12:17:31;;;;;;;6.28;1.73;;;30.80;45.60;;;;;;5069515;28;20377;-65
2022/11/10 12:20:16;;;;;;;7.97;1.85;;;31.00;44.30;;;;;;5070863;28;20031;-65
2022/11/10 12:22:53;;;;;;;9.20;1.80;;;30.20;43.40;;;;;;5071394;28;20388;-65
2022/11/10 12:25:33;;;;;;;5.80;2.13;;;29.80;44.40;;;;;;5071113;28;20032;-65
2022/11/10 12:28:27;;;;;;;4.70;1.33;;;30.20;45.20;;;;;;5059264;28;20527;-65
2022/11/10 12:30:57;;;;;;;8.52;2.05;;;31.60;44.50;;;;;;5054654;28;20396;-65
2022/11/10 12:33:38;;;;;;;6.10;1.73;;;31.90;42.30;;;;;;5072550;28;20021;-65
2022/11/10 12:36:10;;;;;;;6.68;1.85;;;31.40;42.70;;;;;;5067909;28;20013;-65
2022/11/10 12:38:54;;;;;;;6.55;2.03;;;31.40;42.50;;;;;;5053008;28;20444;-65
2022/11/10 12:41:20;;;;;;;5.38;1.40;;;30.80;42.80;;;;;;5066437;28;20056;-65
2022/11/10 12:44:07;;;;;;;7.50;2.30;;;30.10;43.60;;;;;;5064674;28;20084;-65
2022/11/10 12:46:40;;;;;;;4.90;1.70;;;29.80;43.70;;;;;;5056827;28;20060;-65
2022/11/10 12:49:24;;;;;;;7.30;1.63;;;29.20;44.50;;;;;;5072435;28;20044;-65
2022/11/10 12:52:17;;;;;;;6.10;1.88;;;28.80;45.50;;;;;;5064591;28;20052;-65
2022/11/10 12:54:45;;;;;;;6.35;2.05;;;27.80;46.10;;;;;;5070943;28;20032;-65
2022/11/10 12:57:15;;;;;;;6.95;1.90;;;27.20;47.50;;;;;;5059999;28;20481;-65
2022/11/10 12:59:58;;;;;;;7.15;1.90;;;26.90;48.00;;;;;;5071983;28;20017;-65
2022/11/10 13:02:33;;;;;;;4.20;1.35;;;26.80;48.00;;;;;;5071939;28;20044;-65
2022/11/10 13:05:33;;;;;;;11.63;1.65;;;27.80;47.50;;;;;;5070887;28;20021;-65
2022/11/10 13:08:19;;;;;;;4.68;1.33;;;28.50;46.60;;;;;;5061293;28;20440;-65
2022/11/10 13:10:52;;;;;;;7.10;1.45;;;29.00;46.60;;;;;;5071508;28;20081;-65
2022/11/10 13:13:18;;;;;;;4.72;1.23;;;29.10;45.40;;;;;;5069464;28;20117;-65